Data Viewer
| City | State | Eastern Time | Source | Daily Temp Max | Daily Temp Min | Daily Dew Point Max | Daily Dew Point Min | Daily RH Max | Daily Min RH | Daily BP Max | Daily BP Min | Daily Precip | Daily Wind Max | Daily Wind Max Dir |
|---|---|---|---|---|---|---|---|---|---|---|---|---|---|---|
| Moorestown | NJ | 2026-04-08 | Mesonet | 52 | 30 | 28 | 13 | 74 | 25 | 30.66 | 30.51 | 0.00 | 20 | ENE |
| Moorestown | NJ | 2026-04-24 | Mesonet | 75 | 46 | 47 | 34 | 89 | 27 | 29.92 | 29.76 | 0.00 | 19 | SE |
| Moorestown | NJ | 2026-05-07 | Mesonet | 66 | 50 | 60 | 31 | 94 | 28 | 29.90 | 29.76 | 0.08 | 21 | NNW |
| Moorestown | NJ | 2026-05-06 | Mesonet | 71 | 63 | 61 | 53 | 92 | 55 | 29.86 | 29.73 | 0.03 | 29 | SW |
| Moorestown | NJ | 2026-05-05 | Mesonet | 85 | 60 | 55 | 43 | 68 | 23 | 29.89 | 29.75 | 0.00 | 32 | SW |
| Moorestown | NJ | 2026-05-04 | Mesonet | 75 | 46 | 48 | 31 | 73 | 26 | 29.99 | 29.82 | 0.00 | 25 | WSW |
| Moorestown | NJ | 2026-05-03 | Mesonet | 61 | 44 | 34 | 25 | 64 | 25 | 29.96 | 29.85 | 0.00 | 30 | W |
| Moorestown | NJ | 2026-05-02 | Mesonet | 62 | 46 | 47 | 28 | 93 | 31 | 29.93 | 29.83 | 0.00 | 16 | NW |
| Moorestown | NJ | 2026-05-01 | Mesonet | 65 | 44 | 46 | 32 | 85 | 32 | 29.97 | 29.86 | 0.00 | 18 | WSW |
| Moorestown | NJ | 2026-04-30 | Mesonet | 65 | 48 | 54 | 43 | 98 | 48 | 29.88 | 29.73 | 0.28 | 31 | WNW |
| Moorestown | NJ | 2026-04-29 | Mesonet | 66 | 48 | 48 | 38 | 95 | 41 | 30.09 | 29.79 | 0.52 | 18 | SSE |
| Moorestown | NJ | 2026-04-28 | Mesonet | 65 | 38 | 44 | 36 | 95 | 38 | 30.27 | 30.05 | 0.00 | 13 | SW |
| Moorestown | NJ | 2026-04-27 | Mesonet | 70 | 36 | 49 | 35 | 99 | 34 | 30.29 | 30.19 | 0.00 | 17 | NE |
| Moorestown | NJ | 2026-04-26 | Mesonet | 58 | 39 | 46 | 37 | 97 | 53 | 30.22 | 30.00 | 0.10 | 19 | ENE |
| Moorestown | NJ | 2026-04-25 | Mesonet | 51 | 42 | 45 | 39 | 96 | 69 | 30.04 | 29.91 | 0.68 | 20 | E |
| Moorestown | NJ | 2026-04-23 | Mesonet | 77 | 41 | 52 | 39 | 98 | 26 | 30.00 | 29.81 | 0.00 | 20 | WNW |
| Moorestown | NJ | 2026-04-09 | Mesonet | 60 | 27 | 39 | 25 | 96 | 35 | 30.64 | 30.45 | 0.00 | 20 | SSE |
| Moorestown | NJ | 2026-04-22 | Mesonet | 63 | 45 | 52 | 32 | 91 | 59 | 30.25 | 29.95 | 0.18 | 18 | SSE |
| Moorestown | NJ | 2026-04-21 | Mesonet | 57 | 29 | 32 | 13 | 80 | 21 | 30.45 | 30.22 | 0.00 | 16 | W |
| Moorestown | NJ | 2026-04-20 | Mesonet | 53 | 33 | 40 | 17 | 100 | 31 | 30.36 | 30.11 | 0.02 | 24 | NW |
| Moorestown | NJ | 2026-04-19 | Mesonet | 54 | 37 | 51 | 36 | 99 | 60 | 30.13 | 29.76 | 0.12 | 30 | NNW |
| Moorestown | NJ | 2026-04-18 | Mesonet | 72 | 49 | 57 | 47 | 97 | 50 | 30.08 | 29.90 | 0.00 | 21 | E |
| Moorestown | NJ | 2026-04-17 | Mesonet | 81 | 65 | 60 | 50 | 75 | 35 | 29.98 | 29.74 | 0.00 | 29 | NW |
| Moorestown | NJ | 2026-04-16 | Mesonet | 92 | 64 | 65 | 54 | 82 | 30 | 29.94 | 29.73 | 0.00 | 21 | NW |
| Moorestown | NJ | 2026-04-15 | Mesonet | 90 | 60 | 65 | 58 | 97 | 36 | 29.99 | 29.85 | 0.02 | 28 | SW |
| Moorestown | NJ | 2026-04-14 | Mesonet | 86 | 61 | 61 | 52 | 73 | 36 | 30.05 | 29.85 | 0.00 | 31 | W |
| Moorestown | NJ | 2026-04-13 | Mesonet | 80 | 46 | 60 | 40 | 94 | 42 | 30.32 | 29.96 | 0.00 | 31 | SW |
| Moorestown | NJ | 2026-04-12 | Mesonet | 66 | 37 | 40 | 28 | 82 | 31 | 30.54 | 30.32 | 0.00 | 22 | S |
| Moorestown | NJ | 2026-04-11 | Mesonet | 65 | 48 | 48 | 28 | 90 | 26 | 30.41 | 30.11 | 0.00 | 24 | NW |
| Moorestown | NJ | 2026-04-10 | Mesonet | 72 | 37 | 47 | 35 | 95 | 33 | 30.47 | 30.14 | 0.00 | 20 | SSW |
| Moorestown | NJ | 2026-05-08 | Mesonet | 55 | 43 | 46 | 36 | 86 | 49 | 29.97 | 29.81 | 0.00 | 20 | NNW |
data collection created in 0.01097297668457 (queried in 0.003506) rendered in: 7.2956085205078E-5

